createdAt,value
2023-03-05T00:00:41.349Z,0.80
2023-03-05T00:01:43.876Z,1.17
2023-03-05T00:02:46.570Z,1.35
2023-03-05T00:03:49.411Z,0.80
2023-03-05T00:04:51.784Z,0.65
2023-03-05T00:05:57.926Z,1.08
2023-03-05T00:07:00.435Z,0.70
2023-03-05T00:08:03.064Z,1.40
2023-03-05T00:09:06.664Z,1.00
2023-03-05T00:10:09.669Z,0.82
2023-03-05T00:11:13.506Z,1.05
2023-03-05T00:12:17.225Z,1.33
2023-03-05T00:13:19.747Z,1.08
2023-03-05T00:14:23.225Z,1.02
2023-03-05T00:15:25.658Z,2.13
2023-03-05T00:16:29.268Z,1.55
2023-03-05T00:17:31.747Z,2.00
2023-03-05T00:18:34.888Z,1.05
2023-03-05T00:19:37.397Z,1.20
2023-03-05T00:20:39.919Z,1.13
2023-03-05T00:21:43.037Z,1.33
2023-03-05T00:22:45.569Z,1.30
2023-03-05T00:23:48.325Z,2.10
2023-03-05T00:24:51.929Z,1.15
2023-03-05T00:25:54.556Z,1.10
2023-03-05T00:26:57.197Z,1.20
2023-03-05T00:27:59.838Z,1.17
2023-03-05T00:29:03.199Z,1.20
2023-03-05T00:30:06.321Z,1.30
2023-03-05T00:31:09.145Z,1.10
2023-03-05T00:32:11.753Z,1.23
2023-03-05T00:33:14.723Z,0.90
2023-03-05T00:34:19.291Z,1.02
2023-03-05T00:35:21.981Z,1.58
2023-03-05T00:36:25.327Z,1.63
2023-03-05T00:37:27.813Z,1.25
2023-03-05T00:38:30.460Z,1.73
2023-03-05T00:39:33.327Z,2.58
2023-03-05T00:40:38.243Z,1.60
2023-03-05T00:41:41.244Z,1.73
2023-03-05T00:42:43.777Z,1.42
2023-03-05T00:43:47.378Z,1.52
2023-03-05T00:44:49.891Z,1.10
2023-03-05T00:45:52.415Z,1.40
2023-03-05T00:46:55.119Z,1.70
2023-03-05T00:47:57.935Z,1.65
2023-03-05T00:49:00.451Z,2.15
2023-03-05T00:50:04.175Z,1.35
2023-03-05T00:51:06.943Z,1.77
2023-03-05T00:52:09.596Z,1.88
2023-03-05T00:53:12.105Z,1.60
2023-03-05T00:54:14.871Z,1.67
2023-03-05T00:55:17.507Z,1.50
2023-03-05T00:56:20.390Z,2.05
2023-03-05T00:57:23.019Z,2.00
2023-03-05T00:58:25.661Z,1.88
2023-03-05T00:59:28.179Z,2.03
2023-03-05T01:00:30.701Z,2.38
2023-03-05T01:01:33.856Z,3.08
2023-03-05T01:02:38.257Z,3.15
2023-03-05T01:03:40.897Z,3.28
2023-03-05T01:04:46.079Z,1.75
2023-03-05T01:05:48.582Z,1.80
2023-03-05T01:06:51.119Z,2.10
2023-03-05T01:07:54.706Z,1.45
2023-03-05T01:08:57.450Z,1.48
2023-03-05T01:10:00.701Z,2.28
2023-03-05T01:11:04.898Z,1.27
2023-03-05T01:12:07.900Z,1.08
2023-03-05T01:13:10.447Z,1.80
2023-03-05T01:14:13.049Z,1.45
2023-03-05T01:15:15.830Z,1.30
2023-03-05T01:16:18.737Z,1.63
2023-03-05T01:17:21.332Z,1.25
2023-03-05T01:18:23.997Z,1.92
2023-03-05T01:19:26.738Z,1.67
2023-03-05T01:20:29.393Z,1.92
2023-03-05T01:21:32.009Z,1.27
2023-03-05T01:22:34.680Z,1.20
2023-03-05T01:23:37.679Z,1.63
2023-03-05T01:24:40.464Z,1.40
2023-03-05T01:25:43.321Z,0.90
2023-03-05T01:26:45.931Z,1.08
2023-03-05T01:27:48.577Z,1.50
2023-03-05T01:28:51.822Z,1.50
2023-03-05T01:29:54.458Z,0.95
2023-03-05T01:30:57.093Z,1.38
2023-03-05T01:31:59.653Z,1.15
2023-03-05T01:33:02.377Z,0.80
2023-03-05T01:34:04.900Z,1.02
2023-03-05T01:35:08.011Z,1.00
2023-03-05T01:36:16.848Z,1.35
2023-03-05T01:37:19.536Z,0.95
2023-03-05T01:38:22.066Z,1.10
2023-03-05T01:39:24.575Z,0.70
2023-03-05T01:40:30.485Z,1.23
2023-03-05T01:41:34.187Z,1.58
2023-03-05T01:42:36.704Z,0.98
2023-03-05T01:43:39.824Z,0.88
2023-03-05T01:45:01.422Z,1.10
2023-03-05T01:46:22.064Z,0.95
2023-03-05T01:47:24.583Z,1.08
2023-03-05T01:48:27.712Z,1.77
2023-03-05T01:49:36.229Z,1.25
2023-03-05T01:50:39.106Z,1.55
2023-03-05T01:51:41.625Z,1.85
2023-03-05T01:52:50.399Z,1.25
2023-03-05T01:53:55.184Z,1.25
2023-03-05T01:55:01.546Z,2.47
2023-03-05T01:56:04.306Z,1.30
2023-03-05T01:57:12.706Z,1.30
2023-03-05T01:58:15.232Z,1.52
2023-03-05T01:59:18.233Z,1.85
2023-03-05T02:00:26.513Z,1.40
2023-03-05T02:01:41.155Z,1.75
2023-03-05T02:02:50.640Z,1.30
2023-03-05T02:03:53.443Z,2.33
2023-03-05T02:05:01.075Z,1.25
2023-03-05T02:06:03.833Z,1.90
2023-03-05T02:07:07.322Z,1.25
2023-03-05T02:08:12.475Z,1.92
2023-03-05T02:09:14.998Z,2.67
2023-03-05T02:10:19.082Z,1.42
2023-03-05T02:11:21.726Z,1.50
2023-03-05T02:12:26.758Z,1.42
2023-03-05T02:13:35.763Z,1.67
2023-03-05T02:14:40.558Z,1.27
2023-03-05T02:15:43.326Z,1.42
2023-03-05T02:16:45.865Z,1.73
2023-03-05T02:17:48.609Z,1.05
2023-03-05T02:18:51.008Z,1.10
2023-03-05T02:19:55.809Z,1.52
2023-03-05T02:21:02.527Z,1.45
2023-03-05T02:22:05.169Z,1.92
2023-03-05T02:23:07.588Z,1.30
2023-03-05T02:24:12.980Z,1.60
2023-03-05T02:25:21.862Z,1.40
2023-03-05T02:26:24.731Z,1.63
2023-03-05T02:27:35.241Z,1.98
2023-03-05T02:28:47.060Z,1.30
2023-03-05T02:29:50.186Z,1.48
2023-03-05T02:30:53.531Z,1.55
2023-03-05T02:31:56.207Z,1.20
2023-03-05T02:32:58.816Z,1.63
2023-03-05T02:34:02.195Z,1.75
2023-03-05T02:35:05.429Z,1.60
2023-03-05T02:36:08.908Z,1.20
2023-03-05T02:37:11.658Z,1.35
2023-03-05T02:38:17.177Z,1.40
2023-03-05T02:39:19.696Z,1.27
2023-03-05T02:40:22.237Z,1.20
2023-03-05T02:41:25.098Z,1.58
2023-03-05T02:42:28.100Z,1.17
2023-03-05T02:43:30.981Z,2.70
2023-03-05T02:44:37.456Z,1.65
2023-03-05T02:45:40.498Z,1.35
2023-03-05T02:46:43.102Z,1.30
2023-03-05T02:47:45.748Z,0.93
2023-03-05T02:48:48.385Z,2.13
2023-03-05T02:49:50.910Z,1.80
2023-03-05T02:50:56.205Z,1.40
2023-03-05T02:51:58.595Z,1.30
2023-03-05T02:53:01.119Z,1.50
2023-03-05T02:54:04.478Z,1.60
2023-03-05T02:55:07.587Z,1.10
2023-03-05T02:56:10.113Z,1.80
2023-03-05T02:57:12.630Z,1.10
2023-03-05T02:58:15.277Z,1.50
2023-03-05T02:59:17.917Z,1.30
2023-03-05T03:00:20.677Z,1.20
2023-03-05T03:01:23.389Z,1.60
2023-03-05T03:02:25.954Z,1.60
2023-03-05T03:03:28.527Z,1.50
2023-03-05T03:04:31.118Z,1.52
2023-03-05T03:05:33.645Z,1.35
2023-03-05T03:06:36.157Z,1.35
2023-03-05T03:07:38.713Z,1.45
2023-03-05T03:08:41.202Z,1.63
2023-03-05T03:09:43.731Z,1.15
2023-03-05T03:10:46.267Z,1.15
2023-03-05T03:11:48.761Z,1.00
2023-03-05T03:12:51.044Z,1.20
2023-03-05T03:13:53.680Z,0.90
2023-03-05T03:14:56.088Z,1.15
2023-03-05T03:16:07.362Z,1.30
2023-03-05T03:17:12.533Z,1.30
2023-03-05T03:18:15.046Z,2.15
2023-03-05T03:19:17.572Z,1.70
2023-03-05T03:20:20.213Z,1.40
2023-03-05T03:21:25.605Z,1.00
2023-03-05T03:22:28.131Z,1.85
2023-03-05T03:23:31.394Z,0.90
2023-03-05T03:24:34.852Z,1.10
2023-03-05T03:25:37.372Z,1.50
2023-03-05T03:26:39.897Z,1.55
2023-03-05T03:27:42.414Z,1.55
2023-03-05T03:28:45.662Z,1.17
2023-03-05T03:29:48.304Z,0.70
2023-03-05T03:30:50.878Z,1.52
2023-03-05T03:31:53.457Z,2.13
2023-03-05T03:32:55.865Z,1.67
2023-03-05T03:33:58.379Z,0.98
2023-03-05T03:35:01.653Z,1.48
2023-03-05T03:36:05.106Z,1.10
2023-03-05T03:37:08.606Z,1.17
2023-03-05T03:38:12.064Z,2.03
2023-03-05T03:39:15.186Z,1.08
2023-03-05T03:40:17.953Z,1.73
2023-03-05T03:41:20.475Z,1.30
2023-03-05T03:42:24.067Z,1.23
2023-03-05T03:43:26.587Z,1.00
2023-03-05T03:44:28.990Z,1.30
2023-03-05T03:45:31.506Z,1.20
2023-03-05T03:46:34.121Z,1.52
2023-03-05T03:47:36.673Z,1.33
2023-03-05T03:48:39.314Z,1.52
2023-03-05T03:49:41.842Z,1.27
2023-03-05T03:50:44.641Z,0.82
2023-03-05T03:51:48.207Z,1.00
2023-03-05T03:52:51.073Z,1.05
2023-03-05T03:53:53.958Z,1.13
2023-03-05T03:55:01.694Z,1.52
2023-03-05T03:56:04.516Z,1.15
2023-03-05T03:57:06.914Z,0.70
2023-03-05T03:58:09.681Z,1.02
2023-03-05T03:59:12.677Z,0.70
2023-03-05T04:00:15.438Z,1.55
2023-03-05T04:01:19.160Z,0.65
2023-03-05T04:02:21.840Z,0.75
2023-03-05T04:03:24.450Z,0.80
2023-03-05T04:04:29.184Z,0.50
2023-03-05T04:05:31.765Z,1.52
2023-03-05T04:06:34.412Z,0.90
2023-03-05T04:07:37.046Z,0.80
2023-03-05T04:08:39.588Z,0.90
2023-03-05T04:09:41.994Z,0.60
2023-03-05T04:10:44.608Z,2.40
2023-03-05T04:11:47.127Z,0.70
2023-03-05T04:12:49.765Z,0.80
2023-03-05T04:13:52.292Z,1.10
2023-03-05T04:14:54.928Z,0.85
2023-03-05T04:15:57.605Z,0.40
2023-03-05T04:17:00.234Z,0.82
2023-03-05T04:18:02.856Z,1.65
2023-03-05T04:19:05.373Z,1.95
2023-03-05T04:20:10.579Z,1.35
2023-03-05T04:21:13.362Z,0.88
2023-03-05T04:22:17.973Z,1.30
2023-03-05T04:23:20.498Z,1.00
2023-03-05T04:24:23.016Z,1.58
2023-03-05T04:25:25.540Z,0.63
2023-03-05T04:26:28.066Z,1.58
2023-03-05T04:27:30.577Z,1.45
2023-03-05T04:28:33.465Z,1.20
2023-03-05T04:29:36.581Z,1.02
2023-03-05T04:30:39.095Z,1.25
2023-03-05T04:31:41.623Z,0.85
2023-03-05T04:32:44.135Z,0.90
2023-03-05T04:33:46.538Z,1.45
2023-03-05T04:34:49.309Z,0.80
2023-03-05T04:35:51.850Z,1.30
2023-03-05T04:36:54.339Z,1.00
2023-03-05T04:37:56.738Z,1.00
2023-03-05T04:38:59.259Z,1.20
2023-03-05T04:40:01.778Z,1.33
2023-03-05T04:41:04.298Z,1.50
2023-03-05T04:42:07.060Z,1.33
2023-03-05T04:43:09.587Z,0.75
2023-03-05T04:44:12.100Z,1.10
2023-03-05T04:45:14.626Z,0.70
2023-03-05T04:46:17.185Z,1.38
2023-03-05T04:47:20.026Z,1.02
2023-03-05T04:48:22.662Z,1.27
2023-03-05T04:49:25.186Z,1.30
2023-03-05T04:50:27.830Z,2.70
2023-03-05T04:51:30.356Z,1.17
2023-03-05T04:52:32.991Z,1.23
2023-03-05T04:53:36.225Z,1.10
2023-03-05T04:54:39.228Z,1.27
2023-03-05T04:55:41.867Z,2.35
2023-03-05T04:56:44.387Z,1.30
2023-03-05T04:57:46.953Z,1.50
2023-03-05T04:58:49.431Z,1.52
2023-03-05T04:59:51.828Z,1.25
2023-03-05T05:00:54.366Z,1.30
2023-03-05T05:01:56.801Z,1.65
2023-03-05T05:02:59.460Z,1.25
2023-03-05T05:04:02.290Z,1.20
2023-03-05T05:05:04.829Z,2.00
2023-03-05T05:06:07.917Z,2.22
2023-03-05T05:07:10.796Z,1.48
2023-03-05T05:08:13.318Z,1.20
2023-03-05T05:09:15.838Z,2.25
2023-03-05T05:10:18.360Z,1.05
2023-03-05T05:11:20.769Z,1.50
2023-03-05T05:12:23.277Z,1.45
2023-03-05T05:13:26.520Z,1.95
2023-03-05T05:14:29.040Z,1.10
2023-03-05T05:15:32.424Z,1.75
2023-03-05T05:16:34.988Z,0.98
2023-03-05T05:17:37.566Z,1.98
2023-03-05T05:18:40.086Z,1.10
2023-03-05T05:19:42.682Z,0.98
2023-03-05T05:20:45.365Z,1.30
2023-03-05T05:21:48.004Z,1.92
2023-03-05T05:22:50.408Z,1.00
2023-03-05T05:23:52.957Z,1.50
2023-03-05T05:24:56.286Z,1.00
2023-03-05T05:26:00.260Z,0.77
2023-03-05T05:27:02.711Z,0.88
2023-03-05T05:28:05.408Z,0.98
2023-03-05T05:29:07.943Z,1.67
2023-03-05T05:30:11.053Z,1.45
2023-03-05T05:31:15.872Z,0.80
2023-03-05T05:32:22.511Z,1.30
2023-03-05T05:33:25.694Z,0.80
2023-03-05T05:34:28.213Z,1.50
2023-03-05T05:35:30.754Z,1.08
2023-03-05T05:36:33.383Z,0.95
2023-03-05T05:37:35.779Z,0.70
2023-03-05T05:38:39.147Z,0.95
2023-03-05T05:39:41.663Z,0.93
2023-03-05T05:40:44.310Z,1.30
2023-03-05T05:41:46.824Z,1.58
2023-03-05T05:42:49.346Z,1.92
2023-03-05T05:43:51.984Z,0.80
2023-03-05T05:44:55.603Z,1.00
2023-03-05T05:46:06.984Z,0.75
2023-03-05T05:47:09.523Z,1.10
2023-03-05T05:48:12.045Z,1.67
2023-03-05T05:49:14.551Z,1.77
2023-03-05T05:50:18.272Z,1.08
2023-03-05T05:51:23.081Z,1.00
2023-03-05T05:52:25.714Z,1.50
2023-03-05T05:53:28.242Z,0.90
2023-03-05T05:54:30.637Z,1.33
2023-03-05T05:55:33.155Z,1.33
2023-03-05T05:56:35.805Z,1.05
2023-03-05T05:57:38.683Z,1.08
2023-03-05T05:58:41.802Z,1.75
2023-03-05T05:59:44.318Z,1.83
2023-03-05T06:00:46.837Z,1.50
2023-03-05T06:01:49.502Z,1.02
2023-03-05T06:02:52.061Z,1.13
2023-03-05T06:03:55.501Z,1.35
2023-03-05T06:04:58.452Z,1.60
2023-03-05T06:06:01.719Z,1.55
2023-03-05T06:07:04.360Z,1.10
2023-03-05T06:08:07.124Z,1.60
2023-03-05T06:09:09.648Z,1.15
2023-03-05T06:10:12.403Z,0.90
2023-03-05T06:11:17.147Z,1.52
2023-03-05T06:12:21.288Z,1.73
2023-03-05T06:13:23.806Z,0.80
2023-03-05T06:14:26.209Z,1.00
2023-03-05T06:15:28.762Z,1.42
2023-03-05T06:16:31.566Z,1.40
2023-03-05T06:17:34.010Z,0.95
2023-03-05T06:18:36.542Z,1.55
2023-03-05T06:19:38.929Z,1.58
2023-03-05T06:20:41.582Z,0.90
2023-03-05T06:21:44.571Z,1.30
2023-03-05T06:22:47.329Z,1.17
2023-03-05T06:23:50.097Z,0.80
2023-03-05T06:24:52.625Z,1.35
2023-03-05T06:25:58.870Z,0.70
2023-03-05T06:27:01.375Z,1.10
2023-03-05T06:28:03.892Z,0.98
2023-03-05T06:29:06.534Z,1.00
2023-03-05T06:30:11.339Z,0.93
2023-03-05T06:31:17.225Z,1.05
2023-03-05T06:32:20.629Z,1.20
2023-03-05T06:33:23.217Z,0.82
2023-03-05T06:34:25.775Z,0.70
2023-03-05T06:35:28.265Z,1.02
2023-03-05T06:36:31.147Z,1.15
2023-03-05T06:37:34.142Z,0.93
2023-03-05T06:38:36.782Z,1.10
2023-03-05T06:39:39.301Z,1.55
2023-03-05T06:40:41.823Z,1.60
2023-03-05T06:41:44.966Z,1.50
2023-03-05T06:42:47.362Z,1.05
2023-03-05T06:43:49.892Z,1.02
2023-03-05T06:44:52.422Z,1.50
2023-03-05T06:46:05.495Z,1.20
2023-03-05T06:47:10.573Z,1.05
2023-03-05T06:48:13.157Z,1.10
2023-03-05T06:49:15.669Z,1.50
2023-03-05T06:50:18.309Z,1.20
2023-03-05T06:51:25.874Z,1.08
2023-03-05T06:52:28.403Z,1.00
2023-03-05T06:53:31.873Z,1.95
2023-03-05T06:54:34.522Z,1.25
2023-03-05T06:55:39.873Z,1.00
2023-03-05T06:56:45.326Z,1.63
2023-03-05T06:57:47.885Z,1.48
2023-03-05T06:58:52.183Z,1.00
2023-03-05T06:59:54.933Z,1.02
2023-03-05T07:00:57.467Z,0.95
2023-03-05T07:02:00.098Z,2.15
2023-03-05T07:03:02.597Z,1.20
2023-03-05T07:04:06.078Z,1.10
2023-03-05T07:05:08.850Z,1.00
2023-03-05T07:06:14.007Z,0.93
2023-03-05T07:07:16.659Z,1.65
2023-03-05T07:08:19.161Z,1.30
2023-03-05T07:09:21.688Z,1.77
2023-03-05T07:10:24.200Z,0.98
2023-03-05T07:11:27.336Z,1.25
2023-03-05T07:12:29.725Z,0.82
2023-03-05T07:13:32.257Z,1.38
2023-03-05T07:14:34.765Z,0.77
2023-03-05T07:15:41.289Z,0.93
2023-03-05T07:16:43.766Z,1.10
2023-03-05T07:17:46.285Z,1.05
2023-03-05T07:18:49.289Z,0.90
2023-03-05T07:19:51.819Z,0.60
2023-03-05T07:20:55.531Z,0.52
2023-03-05T07:21:58.071Z,0.80
2023-03-05T07:23:00.565Z,0.77
2023-03-05T07:24:04.291Z,1.75
2023-03-05T07:25:07.552Z,0.70
2023-03-05T07:26:11.253Z,0.73
2023-03-05T07:27:13.779Z,0.73
2023-03-05T07:28:16.293Z,0.73
2023-03-05T07:29:18.813Z,0.70
2023-03-05T07:30:21.359Z,0.68
2023-03-05T07:31:30.988Z,0.38
2023-03-05T07:32:36.197Z,1.67
2023-03-05T07:33:38.744Z,0.73
2023-03-05T07:34:41.259Z,0.80
2023-03-05T07:35:43.713Z,0.90
2023-03-05T07:36:47.041Z,1.23
2023-03-05T07:37:49.540Z,1.00
2023-03-05T07:38:52.070Z,0.80
2023-03-05T07:39:54.624Z,0.90
2023-03-05T07:40:57.102Z,0.75
2023-03-05T07:41:59.641Z,1.00
2023-03-05T07:43:07.188Z,0.70
2023-03-05T07:44:10.545Z,1.00
2023-03-05T07:45:13.072Z,1.00
2023-03-05T07:46:17.659Z,0.80
2023-03-05T07:47:20.266Z,0.70
2023-03-05T07:48:22.671Z,0.70
2023-03-05T07:49:25.193Z,0.90
2023-03-05T07:50:27.721Z,1.60
2023-03-05T07:51:30.236Z,0.70
2023-03-05T07:52:32.750Z,0.55
2023-03-05T07:53:35.526Z,0.85
2023-03-05T07:54:41.515Z,0.93
2023-03-05T07:55:47.755Z,1.05
2023-03-05T07:56:50.153Z,0.63
2023-03-05T07:57:53.276Z,0.65
2023-03-05T07:58:55.915Z,1.23
2023-03-05T07:59:58.318Z,0.63
2023-03-05T08:01:01.099Z,0.95
2023-03-05T08:02:03.597Z,0.73
2023-03-05T08:03:06.360Z,0.75
2023-03-05T08:04:11.086Z,0.52
2023-03-05T08:05:20.996Z,1.38
2023-03-05T08:06:23.638Z,0.75
2023-03-05T08:07:26.430Z,0.52
2023-03-05T08:08:29.888Z,0.80
2023-03-05T08:09:35.060Z,0.63
2023-03-05T08:10:39.753Z,0.60
2023-03-05T08:11:42.722Z,0.65
2023-03-05T08:12:45.249Z,1.15
2023-03-05T08:13:47.763Z,1.05
2023-03-05T08:14:51.747Z,0.82
2023-03-05T08:15:55.641Z,0.77
2023-03-05T08:16:58.209Z,1.02
2023-03-05T08:18:01.100Z,1.33
2023-03-05T08:19:03.486Z,0.70
2023-03-05T08:20:10.691Z,0.80
2023-03-05T08:21:26.890Z,0.50
2023-03-05T08:22:29.412Z,0.70
2023-03-05T08:23:32.076Z,0.95
2023-03-05T08:24:34.572Z,0.80
2023-03-05T08:25:38.424Z,0.60
2023-03-05T08:26:41.565Z,0.90
2023-03-05T08:27:45.737Z,0.47
2023-03-05T08:28:48.374Z,1.08
2023-03-05T08:29:50.797Z,0.88
2023-03-05T08:30:53.401Z,0.55
2023-03-05T08:31:56.655Z,0.47
2023-03-05T08:32:59.297Z,0.50
2023-03-05T08:34:02.863Z,0.85
2023-03-05T08:35:06.853Z,0.40
2023-03-05T08:36:10.461Z,0.57
2023-03-05T08:37:12.976Z,0.73
2023-03-05T08:38:15.618Z,0.70
2023-03-05T08:39:18.745Z,0.50
2023-03-05T08:40:21.268Z,0.80
2023-03-05T08:41:23.785Z,0.50
2023-03-05T08:42:26.301Z,0.68
2023-03-05T08:43:29.187Z,0.50
2023-03-05T08:44:31.822Z,0.30
2023-03-05T08:45:34.473Z,0.30
2023-03-05T08:46:39.923Z,0.52
2023-03-05T08:47:42.764Z,0.50
2023-03-05T08:48:45.392Z,0.68
2023-03-05T08:49:47.904Z,0.32
2023-03-05T08:50:50.437Z,0.40
2023-03-05T08:51:52.954Z,0.50
2023-03-05T08:52:57.071Z,0.70
2023-03-05T08:54:00.269Z,0.40
2023-03-05T08:55:03.155Z,0.52
2023-03-05T08:56:06.635Z,1.67
2023-03-05T08:57:09.153Z,0.60
2023-03-05T08:58:11.674Z,0.45
2023-03-05T08:59:14.676Z,0.57
2023-03-05T09:00:17.437Z,0.40
2023-03-05T09:01:20.245Z,0.40
2023-03-05T09:02:23.205Z,0.98
2023-03-05T09:03:26.202Z,0.28
2023-03-05T09:04:28.837Z,0.50
2023-03-05T09:05:31.239Z,0.50
2023-03-05T09:06:34.636Z,1.20
2023-03-05T09:07:37.982Z,0.52
2023-03-05T09:08:41.082Z,0.68
2023-03-05T09:09:43.723Z,0.55
2023-03-05T09:10:46.609Z,0.43
2023-03-05T09:11:49.245Z,0.70
2023-03-05T09:12:51.774Z,0.40
2023-03-05T09:13:54.291Z,0.60
2023-03-05T09:14:57.048Z,0.50
2023-03-05T09:16:03.684Z,1.35
2023-03-05T09:17:06.167Z,0.70
2023-03-05T09:18:09.302Z,0.73
2023-03-05T09:19:12.912Z,0.50
2023-03-05T09:20:15.664Z,0.85
2023-03-05T09:21:18.532Z,0.60
2023-03-05T09:22:21.049Z,0.40
2023-03-05T09:23:24.169Z,0.60
2023-03-05T09:24:26.937Z,0.70
2023-03-05T09:25:29.452Z,0.50
2023-03-05T09:26:32.093Z,0.65
2023-03-05T09:27:36.056Z,0.55
2023-03-05T09:28:39.532Z,0.47
2023-03-05T09:29:43.245Z,0.60
2023-03-05T09:30:45.906Z,0.80
2023-03-05T09:31:51.618Z,0.55
2023-03-05T09:32:54.173Z,0.60
2023-03-05T09:33:56.585Z,0.57
2023-03-05T09:34:59.231Z,0.63
2023-03-05T09:36:02.701Z,0.77
2023-03-05T09:37:05.223Z,0.52
2023-03-05T09:38:07.738Z,1.42
2023-03-05T09:39:10.135Z,0.63
2023-03-05T09:40:17.474Z,0.52
2023-03-05T09:41:58.031Z,0.38
2023-03-05T09:43:33.661Z,0.30
2023-03-05T09:44:41.707Z,0.50
2023-03-05T09:46:00.034Z,0.50
2023-03-05T09:47:20.342Z,0.77
2023-03-05T09:48:46.025Z,0.68
2023-03-05T09:49:48.434Z,0.40
2023-03-05T09:51:01.507Z,0.63
2023-03-05T09:52:15.546Z,0.57
2023-03-05T09:53:30.545Z,0.60
2023-03-05T09:54:39.793Z,0.45
2023-03-05T09:55:48.915Z,0.55
2023-03-05T09:56:57.074Z,0.60
2023-03-05T09:58:07.036Z,0.38
2023-03-05T09:59:15.074Z,0.32
2023-03-05T10:00:33.442Z,0.68
2023-03-05T10:01:38.956Z,0.30
2023-03-05T10:02:50.544Z,0.40
2023-03-05T10:03:58.909Z,0.40
2023-03-05T10:05:19.668Z,0.47
2023-03-05T10:06:46.157Z,1.13
2023-03-05T10:08:01.661Z,0.30
2023-03-05T10:09:33.080Z,0.30
2023-03-05T10:10:50.002Z,0.20
2023-03-05T10:12:13.164Z,1.33
2023-03-05T10:13:38.245Z,0.50
2023-03-05T10:14:41.962Z,0.20
2023-03-05T10:16:03.229Z,0.40
2023-03-05T10:17:26.611Z,0.40
2023-03-05T10:19:03.933Z,0.80
2023-03-05T10:20:34.166Z,0.95
2023-03-05T10:22:09.928Z,0.30
2023-03-05T10:23:38.730Z,0.47
2023-03-05T10:24:52.907Z,0.60
2023-03-05T10:26:07.650Z,0.50
2023-03-05T10:27:18.367Z,0.55
2023-03-05T10:29:03.472Z,0.30
2023-03-05T10:30:05.972Z,0.40
2023-03-05T10:31:45.836Z,0.40
2023-03-05T10:33:05.017Z,0.95
2023-03-05T10:34:23.753Z,0.20
2023-03-05T10:35:47.778Z,0.20
2023-03-05T10:36:52.908Z,0.28
2023-03-05T10:38:13.538Z,1.25
2023-03-05T10:39:42.342Z,0.32
2023-03-05T10:40:52.457Z,0.10
2023-03-05T10:42:10.303Z,0.30
2023-03-05T10:43:23.408Z,0.30
2023-03-05T10:44:38.148Z,0.28
2023-03-05T10:45:46.622Z,0.45
2023-03-05T10:46:50.144Z,0.20
2023-03-05T10:47:57.588Z,0.22
2023-03-05T10:49:15.605Z,0.30
2023-03-05T10:50:27.229Z,0.20
2023-03-05T10:51:39.471Z,0.30
2023-03-05T10:52:46.791Z,0.63
2023-03-05T10:54:10.790Z,0.10
2023-03-05T10:55:20.514Z,0.10
2023-03-05T10:56:25.322Z,0.20
2023-03-05T10:57:33.710Z,0.30
2023-03-05T10:58:36.116Z,0.22
2023-03-05T10:59:44.555Z,0.30
2023-03-05T11:01:18.752Z,0.25
2023-03-05T11:02:22.633Z,0.20
2023-03-05T11:03:25.196Z,0.22
2023-03-05T11:04:32.286Z,0.28
2023-03-05T11:05:52.439Z,0.30
2023-03-05T11:06:54.955Z,0.65
2023-03-05T11:07:57.473Z,0.30
2023-03-05T11:09:22.795Z,0.35
2023-03-05T11:10:25.558Z,0.28
2023-03-05T11:11:28.797Z,0.10
2023-03-05T11:12:36.359Z,0.22
2023-03-05T11:13:55.692Z,0.20
2023-03-05T11:15:10.086Z,0.40
2023-03-05T11:16:27.769Z,0.20
2023-03-05T11:17:34.570Z,0.30
2023-03-05T11:18:37.803Z,0.38
2023-03-05T11:19:40.201Z,0.32
2023-03-05T11:20:42.960Z,0.20
2023-03-05T11:22:04.572Z,0.30
2023-03-05T11:23:17.533Z,0.20
2023-03-05T11:24:20.046Z,0.40
2023-03-05T11:25:25.565Z,0.60
2023-03-05T11:26:28.087Z,0.38
2023-03-05T11:27:43.449Z,0.38
2023-03-05T11:28:54.485Z,0.30
2023-03-05T11:29:58.806Z,0.40
2023-03-05T11:31:02.957Z,0.20
2023-03-05T11:32:23.959Z,0.20
2023-03-05T11:33:27.127Z,0.30
2023-03-05T11:34:35.323Z,0.20
2023-03-05T11:35:41.171Z,0.32
2023-03-05T11:37:03.633Z,0.17
2023-03-05T11:38:15.015Z,0.10
2023-03-05T11:39:22.479Z,0.17
2023-03-05T11:40:27.980Z,0.15
2023-03-05T11:41:44.173Z,0.10
2023-03-05T11:42:56.176Z,0.10
2023-03-05T11:44:03.777Z,0.52
2023-03-05T11:45:14.657Z,0.08
2023-03-05T11:47:34.230Z,0.20
2023-03-05T11:48:38.902Z,0.30
2023-03-05T11:49:45.498Z,0.10
2023-03-05T11:50:55.469Z,0.70
2023-03-05T11:52:03.515Z,0.20
2023-03-05T11:53:12.146Z,0.30
2023-03-05T11:54:20.546Z,0.30
2023-03-05T11:55:30.996Z,0.30
2023-03-05T11:56:42.629Z,0.70
2023-03-05T11:58:12.993Z,0.30
2023-03-05T11:59:22.364Z,0.82
2023-03-05T12:00:29.794Z,0.50
2023-03-05T12:01:36.278Z,0.93
2023-03-05T12:02:39.291Z,0.28
2023-03-05T12:03:42.908Z,0.10
2023-03-05T12:04:45.395Z,0.38
2023-03-05T12:05:57.163Z,0.55
2023-03-05T12:07:03.535Z,0.30
2023-03-05T12:08:11.923Z,0.28
2023-03-05T12:09:18.877Z,0.80
2023-03-05T12:10:24.581Z,0.60
2023-03-05T12:11:32.568Z,0.52
2023-03-05T12:13:04.365Z,1.20
2023-03-05T12:14:15.670Z,0.77
2023-03-05T12:15:18.051Z,0.30
2023-03-05T12:16:45.404Z,0.45
2023-03-05T12:17:55.613Z,0.55
2023-03-05T12:19:20.568Z,0.70
2023-03-05T12:20:38.403Z,0.38
2023-03-05T12:21:43.729Z,1.10
2023-03-05T12:22:46.251Z,1.50
2023-03-05T12:23:52.015Z,2.15
2023-03-05T12:25:32.937Z,0.55
2023-03-05T12:26:54.569Z,1.40
2023-03-05T12:27:57.302Z,0.50
2023-03-05T12:28:59.817Z,0.40
2023-03-05T12:30:04.142Z,0.30
2023-03-05T12:31:35.778Z,0.70
2023-03-05T12:32:44.174Z,0.38
2023-03-05T12:33:46.737Z,0.10
2023-03-05T12:34:50.816Z,0.20
2023-03-05T12:35:53.477Z,0.43
2023-03-05T12:36:56.100Z,0.40
2023-03-05T12:38:06.182Z,0.55
2023-03-05T12:39:42.306Z,0.40
2023-03-05T12:40:45.101Z,0.40
2023-03-05T12:41:47.586Z,0.70
2023-03-05T12:42:58.505Z,0.38
2023-03-05T12:44:06.683Z,0.40
2023-03-05T12:45:12.552Z,0.50
2023-03-05T12:46:26.401Z,0.10
2023-03-05T12:47:28.868Z,0.10
2023-03-05T12:48:31.297Z,0.30
2023-03-05T12:49:46.051Z,0.38
2023-03-05T12:50:49.058Z,0.17
2023-03-05T12:51:53.974Z,0.50
2023-03-05T12:53:13.995Z,0.47
2023-03-05T12:54:29.974Z,0.90
2023-03-05T12:55:48.818Z,1.05
2023-03-05T12:56:53.265Z,0.40
2023-03-05T12:58:04.197Z,0.60
2023-03-05T13:00:22.397Z,0.60
2023-03-05T13:01:43.523Z,0.70
2023-03-05T13:04:17.478Z,0.20
2023-03-05T13:06:37.646Z,0.30
2023-03-05T13:07:40.058Z,0.60
2023-03-05T13:08:43.650Z,0.55
2023-03-05T13:09:54.799Z,0.80
2023-03-05T13:10:59.965Z,0.50
2023-03-05T13:12:09.648Z,0.70
2023-03-05T13:13:15.460Z,0.70
2023-03-05T13:14:43.062Z,0.45
2023-03-05T13:15:47.529Z,0.30
2023-03-05T13:16:50.596Z,0.38
2023-03-05T13:17:57.872Z,0.20
2023-03-05T13:19:02.016Z,0.28
2023-03-05T13:20:28.997Z,0.30
2023-03-05T13:21:35.475Z,0.32
2023-03-05T13:22:39.079Z,0.30
2023-03-05T13:23:58.492Z,0.57
2023-03-05T13:25:14.964Z,0.40
2023-03-05T13:26:20.046Z,0.50
2023-03-05T13:27:30.565Z,0.30
2023-03-05T13:28:33.453Z,0.32
2023-03-05T13:29:35.971Z,0.60
2023-03-05T13:30:38.733Z,0.13
2023-03-05T13:31:50.585Z,0.30
2023-03-05T13:32:57.924Z,0.52
2023-03-05T13:34:11.367Z,1.00
2023-03-05T13:35:13.890Z,0.63
2023-03-05T13:36:16.654Z,2.13
2023-03-05T13:37:22.432Z,1.67
2023-03-05T13:38:34.057Z,1.98
2023-03-05T13:39:56.752Z,3.67
2023-03-05T13:41:20.615Z,1.75
2023-03-05T13:42:32.510Z,2.42
2023-03-05T13:43:43.295Z,1.55
2023-03-05T13:44:57.813Z,0.47
2023-03-05T13:46:00.583Z,0.70
2023-03-05T13:47:20.622Z,0.32
2023-03-05T13:48:23.145Z,0.40
2023-03-05T13:49:27.935Z,0.57
2023-03-05T13:50:31.777Z,0.68
2023-03-05T13:51:46.084Z,0.63
2023-03-05T13:52:48.577Z,0.52
2023-03-05T13:53:51.346Z,1.08
2023-03-05T13:54:53.859Z,0.43
2023-03-05T13:56:07.784Z,0.47
2023-03-05T13:57:34.797Z,0.60
2023-03-05T13:58:53.654Z,0.45
2023-03-05T13:59:56.138Z,0.52
2023-03-05T14:01:28.942Z,0.82
2023-03-05T14:02:33.395Z,0.52
2023-03-05T14:03:35.983Z,0.35
2023-03-05T14:04:42.733Z,0.50
2023-03-05T14:05:54.127Z,0.30
2023-03-05T14:07:03.845Z,0.40
2023-03-05T14:08:06.345Z,0.50
2023-03-05T14:09:18.769Z,0.47
2023-03-05T14:10:30.860Z,0.30
2023-03-05T14:11:34.430Z,0.50
2023-03-05T14:12:41.032Z,0.30
2023-03-05T14:13:44.149Z,0.50
2023-03-05T14:14:47.156Z,0.40
2023-03-05T14:16:11.281Z,0.38
2023-03-05T14:17:31.072Z,0.20
2023-03-05T14:18:34.193Z,0.43
2023-03-05T14:19:39.598Z,1.15
2023-03-05T14:21:00.735Z,0.85
2023-03-05T14:22:04.919Z,1.60
2023-03-05T14:23:41.041Z,1.48
2023-03-05T14:24:51.961Z,1.17
2023-03-05T14:27:21.125Z,0.63
2023-03-05T14:28:29.290Z,0.75
2023-03-05T14:29:32.767Z,0.52
2023-03-05T14:30:36.356Z,0.85
2023-03-05T14:31:58.145Z,0.70
2023-03-05T14:33:01.212Z,0.43
2023-03-05T14:34:06.374Z,1.05
2023-03-05T14:35:18.743Z,0.40
2023-03-05T14:36:29.765Z,0.55
2023-03-05T14:37:45.264Z,0.50
2023-03-05T14:38:47.649Z,0.40
2023-03-05T14:39:51.609Z,0.60
2023-03-05T14:40:54.257Z,1.00
2023-03-05T14:42:14.061Z,0.80
2023-03-05T14:43:16.593Z,0.52
2023-03-05T14:44:19.700Z,0.75